createdAt,value
2019-05-03T00:02:23.779Z,2.40
2019-05-03T00:05:12.734Z,2.53
2019-05-03T00:07:42.107Z,3.10
2019-05-03T00:10:12.866Z,2.93
2019-05-03T00:12:42.264Z,2.80
2019-05-03T00:15:29.903Z,2.73
2019-05-03T00:17:58.681Z,2.67
2019-05-03T00:20:27.412Z,2.67
2019-05-03T00:22:56.003Z,2.67
2019-05-03T00:25:24.562Z,3.00
2019-05-03T00:27:53.294Z,3.10
2019-05-03T00:30:22.538Z,3.50
2019-05-03T00:32:52.156Z,3.20
2019-05-03T00:35:22.716Z,3.20
2019-05-03T00:38:02.285Z,3.20
2019-05-03T00:40:32.391Z,3.33
2019-05-03T00:43:02.304Z,3.27
2019-05-03T00:45:31.627Z,3.80
2019-05-03T00:48:01.886Z,2.90
2019-05-03T00:50:32.073Z,3.57
2019-05-03T00:53:02.323Z,3.90
2019-05-03T00:55:32.839Z,3.57
2019-05-03T00:58:02.486Z,3.30
2019-05-03T01:00:32.308Z,3.27
2019-05-03T01:03:02.221Z,3.07
2019-05-03T01:05:32.966Z,2.60
2019-05-03T01:08:01.978Z,1.87
2019-05-03T01:10:32.943Z,2.83
2019-05-03T01:13:01.672Z,2.20
2019-05-03T01:15:37.998Z,2.13
2019-05-03T01:18:08.661Z,2.17
2019-05-03T01:20:37.214Z,2.03
2019-05-03T01:23:05.873Z,1.43
2019-05-03T01:25:35.561Z,1.67
2019-05-03T01:28:04.755Z,1.70
2019-05-03T01:30:33.270Z,2.23
2019-05-03T01:33:02.821Z,2.20
2019-05-03T01:35:32.313Z,2.87
2019-05-03T01:38:02.578Z,1.60
2019-05-03T01:40:32.602Z,1.50
2019-05-03T01:43:02.237Z,1.23
2019-05-03T01:45:31.850Z,1.10
2019-05-03T01:48:21.577Z,0.90
2019-05-03T01:51:03.729Z,0.80
2019-05-03T01:53:33.930Z,1.22
2019-05-03T01:56:03.674Z,0.93
2019-05-03T01:58:32.490Z,1.07
2019-05-03T02:01:02.929Z,1.10
2019-05-03T02:03:33.112Z,1.30
2019-05-03T02:06:02.446Z,1.03
2019-05-03T02:08:32.644Z,0.97
2019-05-03T02:11:02.199Z,0.93
2019-05-03T02:13:32.144Z,1.17
2019-05-03T02:16:02.307Z,1.30
2019-05-03T02:18:31.833Z,1.40
2019-05-03T02:21:01.661Z,1.30
2019-05-03T02:23:31.979Z,1.20
2019-05-03T02:26:02.907Z,1.30
2019-05-03T02:28:32.703Z,1.77
2019-05-03T02:31:03.547Z,1.67
2019-05-03T02:33:32.872Z,1.50
2019-05-03T02:36:03.669Z,1.60
2019-05-03T02:38:33.849Z,1.40
2019-05-03T02:41:03.296Z,1.67
2019-05-03T02:43:36.109Z,1.80
2019-05-03T02:46:17.783Z,1.77
2019-05-03T02:48:48.334Z,1.57
2019-05-03T02:51:16.978Z,1.50
2019-05-03T02:53:45.894Z,1.33
2019-05-03T02:56:21.977Z,1.47
2019-05-03T02:58:46.022Z,1.50
2019-05-03T03:01:16.205Z,1.40
2019-05-03T03:03:45.976Z,1.77
2019-05-03T03:06:17.827Z,2.63
2019-05-03T03:08:48.134Z,1.40
2019-05-03T03:11:19.274Z,1.50
2019-05-03T03:13:51.015Z,2.17
2019-05-03T03:16:21.296Z,1.90
2019-05-03T03:18:55.679Z,2.07
2019-05-03T03:21:26.103Z,1.47
2019-05-03T03:24:00.630Z,1.63
2019-05-03T03:26:37.149Z,1.40
2019-05-03T03:29:05.773Z,1.60
2019-05-03T03:31:52.179Z,1.57
2019-05-03T03:34:27.865Z,2.17
2019-05-03T03:37:04.219Z,1.90
2019-05-03T03:39:26.726Z,1.67
2019-05-03T03:41:57.810Z,1.60
2019-05-03T03:44:27.544Z,1.57
2019-05-03T03:46:57.843Z,2.30
2019-05-03T03:49:28.988Z,2.03
2019-05-03T03:52:00.522Z,1.80
2019-05-03T03:54:32.188Z,1.87
2019-05-03T03:57:07.457Z,1.60
2019-05-03T03:59:36.397Z,1.72
2019-05-03T04:02:05.914Z,1.93
2019-05-03T04:04:36.042Z,1.60
2019-05-03T04:07:06.541Z,1.97
2019-05-03T04:09:36.521Z,2.17
2019-05-03T04:12:06.424Z,1.90
2019-05-03T04:14:37.799Z,2.10
2019-05-03T04:17:15.208Z,1.80
2019-05-03T04:19:45.764Z,2.47
2019-05-03T04:22:16.408Z,2.10
2019-05-03T04:24:45.912Z,2.30
2019-05-03T04:27:23.059Z,2.47
2019-05-03T04:29:46.336Z,2.40
2019-05-03T04:32:15.732Z,2.00
2019-05-03T04:34:45.523Z,2.00
2019-05-03T04:37:16.128Z,3.00
2019-05-03T04:39:45.679Z,2.20
2019-05-03T04:42:16.654Z,3.13
2019-05-03T04:44:45.971Z,2.17
2019-05-03T04:47:15.907Z,2.00
2019-05-03T04:49:46.284Z,1.83
2019-05-03T04:52:16.503Z,1.70
2019-05-03T04:54:56.596Z,1.60
2019-05-03T04:57:39.912Z,1.57
2019-05-03T04:59:56.918Z,1.80
2019-05-03T05:02:26.529Z,1.43
2019-05-03T05:04:55.715Z,1.30
2019-05-03T05:07:26.117Z,2.10
2019-05-03T05:09:56.279Z,2.23
2019-05-03T05:12:25.846Z,2.23
2019-05-03T05:14:56.555Z,2.20
2019-05-03T05:17:27.459Z,2.23
2019-05-03T05:20:00.427Z,2.60
2019-05-03T05:22:34.968Z,1.73
2019-05-03T05:25:07.385Z,1.90
2019-05-03T05:27:47.942Z,1.65
2019-05-03T05:30:10.674Z,2.02
2019-05-03T05:32:39.417Z,2.20
2019-05-03T05:35:08.528Z,2.30
2019-05-03T05:37:37.150Z,2.37
2019-05-03T05:40:07.590Z,1.80
2019-05-03T05:42:36.258Z,2.03
2019-05-03T05:45:06.891Z,1.87
2019-05-03T05:47:37.094Z,2.00
2019-05-03T05:50:14.895Z,2.33
2019-05-03T05:52:44.853Z,1.77
2019-05-03T05:55:18.611Z,1.57
2019-05-03T05:58:01.242Z,2.20
2019-05-03T06:00:20.804Z,1.73
2019-05-03T06:02:49.367Z,2.00
2019-05-03T06:05:18.071Z,2.10
2019-05-03T06:07:57.235Z,1.70
2019-05-03T06:10:39.589Z,2.47
2019-05-03T06:13:15.607Z,2.22
2019-05-03T06:15:45.806Z,3.33
2019-05-03T06:18:18.631Z,2.50
2019-05-03T06:23:38.312Z,2.10
2019-05-03T06:26:08.607Z,2.40
2019-05-03T06:28:37.295Z,1.60
2019-05-03T06:31:14.913Z,2.00
2019-05-03T06:33:45.068Z,1.40
2019-05-03T06:36:15.260Z,1.40
2019-05-03T06:38:44.710Z,2.20
2019-05-03T06:41:15.000Z,2.23
2019-05-03T06:43:48.390Z,2.53
2019-05-03T06:46:18.132Z,3.80
2019-05-03T06:48:44.962Z,1.70
2019-05-03T06:51:19.268Z,2.10
2019-05-03T06:53:49.048Z,2.50
2019-05-03T06:56:14.833Z,2.20
2019-05-03T06:58:44.903Z,2.53
2019-05-03T07:01:15.355Z,2.50
2019-05-03T07:03:45.675Z,2.63
2019-05-03T07:06:33.560Z,2.10
2019-05-03T07:09:02.625Z,2.10
2019-05-03T07:11:31.285Z,1.90
2019-05-03T07:13:59.914Z,2.20
2019-05-03T07:16:28.613Z,2.60
2019-05-03T07:18:58.589Z,2.20
2019-05-03T07:21:27.396Z,1.90
2019-05-03T07:23:56.039Z,3.23
2019-05-03T07:26:25.373Z,2.00
2019-05-03T07:28:54.615Z,1.93
2019-05-03T07:31:25.429Z,2.40
2019-05-03T07:33:55.048Z,1.93
2019-05-03T07:36:28.086Z,2.37
2019-05-03T07:38:55.549Z,2.50
2019-05-03T07:41:27.138Z,4.77
2019-05-03T07:43:55.044Z,4.10
2019-05-03T07:46:24.735Z,2.80
2019-05-03T07:48:54.867Z,2.80
2019-05-03T07:51:24.898Z,2.67
2019-05-03T07:53:55.614Z,2.77
2019-05-03T07:56:29.360Z,3.90
2019-05-03T07:59:02.644Z,2.70
2019-05-03T08:01:30.215Z,2.93
2019-05-03T08:03:59.011Z,3.87
2019-05-03T08:06:27.711Z,7.23
2019-05-03T08:08:56.775Z,3.53
2019-05-03T08:11:25.462Z,2.30
2019-05-03T08:13:55.053Z,2.87
2019-05-03T08:16:25.136Z,3.17
2019-05-03T08:18:55.821Z,2.33
2019-05-03T08:21:25.232Z,2.37
2019-05-03T08:23:55.673Z,2.50
2019-05-03T08:26:25.707Z,3.13
2019-05-03T08:28:54.915Z,3.03
2019-05-03T08:31:40.363Z,2.50
2019-05-03T08:34:10.945Z,2.23
2019-05-03T08:36:57.755Z,1.83
2019-05-03T08:39:26.527Z,2.40
2019-05-03T08:41:57.138Z,2.30
2019-05-03T08:44:28.076Z,2.73
2019-05-03T08:46:58.899Z,4.87
2019-05-03T08:49:27.700Z,3.47
2019-05-03T08:51:56.371Z,1.80
2019-05-03T08:54:25.716Z,1.60
2019-05-03T08:56:55.722Z,1.57
2019-05-03T08:59:31.549Z,2.87
2019-05-03T09:01:55.231Z,2.23
2019-05-03T09:04:36.393Z,2.20
2019-05-03T09:06:55.045Z,3.03
2019-05-03T09:09:28.919Z,3.20
2019-05-03T09:11:57.594Z,4.23
2019-05-03T09:14:38.753Z,2.70
2019-05-03T09:16:56.794Z,2.90
2019-05-03T09:19:25.564Z,1.80
2019-05-03T09:21:54.887Z,2.37
2019-05-03T09:24:24.596Z,1.27
2019-05-03T09:26:55.483Z,2.57
2019-05-03T09:29:25.516Z,2.50
2019-05-03T09:31:55.409Z,1.87
2019-05-03T09:34:25.699Z,2.00
2019-05-03T09:36:55.303Z,1.75
2019-05-03T09:39:24.628Z,2.58
2019-05-03T09:41:55.439Z,1.65
2019-05-03T09:44:25.782Z,1.60
2019-05-03T09:46:55.000Z,1.22
2019-05-03T09:49:25.302Z,1.98
2019-05-03T09:51:54.847Z,1.60
2019-05-03T09:54:28.052Z,1.75
2019-05-03T09:56:58.669Z,3.62
2019-05-03T09:59:28.463Z,1.40
2019-05-03T10:01:57.742Z,1.80
2019-05-03T10:04:26.531Z,2.15
2019-05-03T10:06:55.295Z,2.45
2019-05-03T10:09:26.067Z,2.58
2019-05-03T10:11:55.282Z,1.30
2019-05-03T10:14:24.676Z,1.72
2019-05-03T10:17:05.068Z,8.28
2019-05-03T10:19:39.906Z,2.08
2019-05-03T10:22:05.844Z,1.80
2019-05-03T10:24:35.146Z,2.12
2019-05-03T10:27:05.568Z,1.57
2019-05-03T10:29:34.511Z,2.45
2019-05-03T10:32:07.615Z,2.22
2019-05-03T10:34:36.239Z,1.47
2019-05-03T10:37:07.062Z,1.87
2019-05-03T10:39:36.280Z,1.40
2019-05-03T10:42:05.657Z,2.80
2019-05-03T10:44:35.828Z,2.60
2019-05-03T10:47:05.519Z,1.57
2019-05-03T10:49:35.157Z,1.55
2019-05-03T10:52:05.814Z,1.50
2019-05-03T10:54:35.785Z,1.15
2019-05-03T10:57:06.489Z,1.60
2019-05-03T10:59:35.665Z,2.12
2019-05-03T11:02:18.269Z,4.17
2019-05-03T11:04:47.025Z,2.83
2019-05-03T11:07:15.706Z,2.72
2019-05-03T11:09:49.780Z,3.70
2019-05-03T11:12:14.907Z,4.03
2019-05-03T11:14:45.408Z,3.22
2019-05-03T11:17:14.884Z,2.13
2019-05-03T11:19:45.436Z,1.77
2019-05-03T11:22:14.660Z,1.40
2019-05-03T11:24:45.421Z,1.85
2019-05-03T11:27:21.897Z,2.92
2019-05-03T11:29:50.673Z,2.65
2019-05-03T11:32:25.419Z,2.62
2019-05-03T11:35:07.610Z,1.40
2019-05-03T11:37:53.270Z,2.00
2019-05-03T11:40:22.240Z,3.10
2019-05-03T11:42:52.397Z,1.67
2019-05-03T11:45:21.551Z,1.82
2019-05-03T11:47:50.289Z,1.98
2019-05-03T11:50:19.044Z,1.67
2019-05-03T11:52:47.805Z,2.50
2019-05-03T11:55:16.733Z,3.87
2019-05-03T11:57:45.338Z,1.70
2019-05-03T12:00:17.448Z,1.80
2019-05-03T12:02:47.795Z,2.58
2019-05-03T12:05:27.330Z,1.98
2019-05-03T12:07:56.071Z,1.95
2019-05-03T12:10:45.740Z,1.90
2019-05-03T12:13:01.040Z,1.47
2019-05-03T12:15:29.791Z,3.25
2019-05-03T12:18:05.982Z,1.72
2019-05-03T12:20:37.185Z,1.55
2019-05-03T12:23:05.953Z,1.40
2019-05-03T12:25:36.118Z,1.72
2019-05-03T12:28:05.908Z,1.32
2019-05-03T12:30:35.556Z,1.72
2019-05-03T12:33:05.898Z,2.95
2019-05-03T12:35:35.719Z,1.17
2019-05-03T12:38:06.939Z,1.35
2019-05-03T12:40:36.971Z,1.85
2019-05-03T12:43:06.178Z,1.98
2019-05-03T12:45:35.579Z,1.82
2019-05-03T12:48:05.178Z,2.17
2019-05-03T12:50:34.678Z,15.63
2019-05-03T12:53:04.762Z,1.80
2019-05-03T12:55:35.636Z,1.90
2019-05-03T12:58:06.390Z,2.10
2019-05-03T13:00:39.450Z,2.10
2019-05-03T13:03:18.968Z,5.17
2019-05-03T13:05:47.811Z,1.90
2019-05-03T13:08:37.354Z,3.37
2019-05-03T13:11:06.283Z,1.42
2019-05-03T13:13:36.070Z,12.70
2019-05-03T13:16:09.454Z,2.95
2019-05-03T13:18:38.447Z,7.87
2019-05-03T13:21:08.721Z,3.80
2019-05-03T13:23:37.456Z,1.85
2019-05-03T13:26:06.225Z,1.60
2019-05-03T13:28:35.558Z,2.05
2019-05-03T13:31:05.781Z,1.57
2019-05-03T13:33:35.067Z,1.67
2019-05-03T13:36:04.396Z,3.92
2019-05-03T13:38:34.958Z,2.62
2019-05-03T13:41:06.198Z,1.95
2019-05-03T13:43:34.807Z,1.90
2019-05-03T13:46:05.129Z,2.10
2019-05-03T13:48:42.677Z,1.87
2019-05-03T13:51:05.251Z,1.90
2019-05-03T13:53:34.830Z,1.25
2019-05-03T13:56:04.736Z,4.35
2019-05-03T13:58:35.870Z,2.40
2019-05-03T14:01:05.485Z,2.58
2019-05-03T14:03:35.461Z,2.67
2019-05-03T14:06:08.732Z,3.30
2019-05-03T14:08:34.999Z,2.77
2019-05-03T14:11:04.996Z,2.17
2019-05-03T14:13:35.420Z,2.67
2019-05-03T14:16:05.760Z,4.37
2019-05-03T14:18:35.518Z,2.52
2019-05-03T14:21:15.139Z,3.02
2019-05-03T14:23:54.659Z,1.47
2019-05-03T14:26:24.584Z,1.70
2019-05-03T14:28:54.905Z,2.00
2019-05-03T14:31:25.170Z,1.95
2019-05-03T14:33:55.853Z,1.47
2019-05-03T14:36:25.136Z,1.75
2019-05-03T14:38:54.881Z,2.37
2019-05-03T14:41:25.356Z,2.00
2019-05-03T14:43:55.631Z,2.12
2019-05-03T14:46:32.533Z,5.15
2019-05-03T14:48:55.210Z,2.05
2019-05-03T14:51:25.381Z,3.12
2019-05-03T14:53:56.755Z,2.70
2019-05-03T14:56:26.083Z,1.57
2019-05-03T14:59:05.218Z,1.95
2019-05-03T15:01:35.630Z,1.65
2019-05-03T15:04:05.859Z,3.98
2019-05-03T15:06:35.413Z,3.20
2019-05-03T15:09:06.525Z,1.62
2019-05-03T15:11:35.451Z,1.85
2019-05-03T15:14:05.642Z,1.75
2019-05-03T15:16:34.771Z,3.60
2019-05-03T15:19:05.315Z,1.47
2019-05-03T15:21:34.664Z,1.75
2019-05-03T15:24:05.300Z,2.33
2019-05-03T15:26:35.612Z,3.62
2019-05-03T15:29:04.851Z,2.40
2019-05-03T15:31:44.675Z,1.98
2019-05-03T15:34:04.731Z,2.00
2019-05-03T15:36:33.485Z,2.50
2019-05-03T15:39:02.021Z,2.58
2019-05-03T15:41:34.337Z,2.80
2019-05-03T15:44:20.669Z,1.98
2019-05-03T15:46:50.987Z,3.65
2019-05-03T15:49:19.671Z,3.62
2019-05-03T15:51:48.275Z,3.10
2019-05-03T15:54:16.962Z,3.22
2019-05-03T15:56:45.534Z,3.55
2019-05-03T15:59:14.942Z,4.22
2019-05-03T16:01:43.982Z,3.27
2019-05-03T16:04:14.239Z,3.65
2019-05-03T16:06:44.676Z,4.40
2019-05-03T16:09:15.130Z,3.60
2019-05-03T16:11:45.061Z,3.52
2019-05-03T16:14:15.312Z,3.80
2019-05-03T16:16:45.097Z,3.12
2019-05-03T16:19:15.520Z,3.65
2019-05-03T16:21:45.279Z,2.47
2019-05-03T16:24:15.506Z,2.80
2019-05-03T16:27:01.739Z,3.20
2019-05-03T16:29:30.455Z,3.30
2019-05-03T16:31:59.026Z,3.50
2019-05-03T16:34:27.629Z,4.33
2019-05-03T16:36:56.317Z,2.30
2019-05-03T16:39:26.932Z,3.12
2019-05-03T16:41:55.573Z,2.52
2019-05-03T16:44:24.665Z,1.60
2019-05-03T16:46:55.339Z,2.70
2019-05-03T16:49:24.651Z,2.05
2019-05-03T16:51:54.898Z,2.80
2019-05-03T16:54:25.385Z,2.00
2019-05-03T16:56:54.981Z,2.20
2019-05-03T16:59:30.274Z,2.67
2019-05-03T17:02:01.703Z,2.85
2019-05-03T17:04:32.062Z,2.43
2019-05-03T17:07:06.876Z,2.23
2019-05-03T17:09:45.745Z,3.00
2019-05-03T17:12:18.953Z,1.90
2019-05-03T17:14:47.937Z,2.07
2019-05-03T17:17:16.585Z,2.60
2019-05-03T17:19:45.367Z,3.33
2019-05-03T17:22:16.970Z,2.70
2019-05-03T17:24:44.736Z,3.63
2019-05-03T17:27:13.566Z,5.67
2019-05-03T17:29:42.163Z,6.10
2019-05-03T17:32:11.217Z,8.13
2019-05-03T17:34:45.305Z,4.10
2019-05-03T17:37:23.074Z,2.80
2019-05-03T17:39:59.722Z,4.43
2019-05-03T17:42:46.671Z,4.00
2019-05-03T17:45:16.998Z,4.40
2019-05-03T17:47:45.661Z,4.13
2019-05-03T17:50:14.762Z,4.20
2019-05-03T17:52:54.613Z,3.87
2019-05-03T17:55:25.055Z,5.50
2019-05-03T17:57:58.171Z,6.00
2019-05-03T18:00:44.612Z,8.83
2019-05-03T18:03:14.339Z,4.80
2019-05-03T18:05:44.899Z,3.43
2019-05-03T18:08:24.999Z,6.00
2019-05-03T18:11:01.984Z,5.67
2019-05-03T18:13:32.681Z,5.87
2019-05-03T18:16:01.170Z,6.20
2019-05-03T18:18:29.736Z,5.83
2019-05-03T18:20:58.288Z,6.43
2019-05-03T18:23:28.769Z,5.47
2019-05-03T18:25:57.142Z,4.57
2019-05-03T18:28:25.862Z,4.40
2019-05-03T18:30:54.781Z,5.37
2019-05-03T18:33:24.714Z,5.37
2019-05-03T18:35:55.061Z,6.90
2019-05-03T18:38:25.381Z,6.03
2019-05-03T18:40:55.309Z,6.93
2019-05-03T18:43:25.932Z,7.60
2019-05-03T18:46:08.159Z,11.00
2019-05-03T18:48:36.851Z,10.03
2019-05-03T18:51:05.511Z,10.13
2019-05-03T18:53:34.519Z,8.73
2019-05-03T18:56:04.998Z,11.93
2019-05-03T18:58:33.748Z,16.50
2019-05-03T19:01:02.812Z,21.43
2019-05-03T19:03:31.798Z,19.73
2019-05-03T19:06:05.415Z,19.10
2019-05-03T19:08:35.864Z,18.77
2019-05-03T19:11:24.561Z,14.93
2019-05-03T19:14:00.635Z,21.60
2019-05-03T19:16:35.116Z,14.40
2019-05-03T19:19:04.723Z,12.63
2019-05-03T19:21:35.033Z,11.23
2019-05-03T19:24:04.844Z,12.63
2019-05-03T19:26:35.291Z,12.50
2019-05-03T19:29:04.549Z,12.17
2019-05-03T19:31:35.619Z,12.83
2019-05-03T19:34:06.079Z,13.27
2019-05-03T19:36:37.105Z,12.17
2019-05-03T19:39:08.323Z,12.63
2019-05-03T19:41:37.065Z,13.27
2019-05-03T19:44:05.723Z,13.97
2019-05-03T19:46:35.129Z,13.87
2019-05-03T19:49:05.069Z,13.17
2019-05-03T19:51:34.412Z,12.67
2019-05-03T19:54:05.396Z,10.87
2019-05-03T19:56:34.448Z,11.90
2019-05-03T19:59:04.834Z,11.53
2019-05-03T20:01:40.731Z,10.07
2019-05-03T20:04:11.048Z,10.73
2019-05-03T20:06:53.149Z,11.40
2019-05-03T20:09:24.486Z,11.30
2019-05-03T20:11:55.226Z,12.03
2019-05-03T20:14:25.709Z,12.50
2019-05-03T20:16:54.979Z,11.77
2019-05-03T20:19:25.871Z,13.10
2019-05-03T20:21:54.242Z,12.67
2019-05-03T20:24:25.377Z,12.87
2019-05-03T20:26:54.291Z,11.87
2019-05-03T20:29:24.987Z,13.30
2019-05-03T20:31:55.054Z,14.37
2019-05-03T20:34:24.907Z,13.20
2019-05-03T20:36:54.869Z,15.13
2019-05-03T20:42:11.287Z,13.77
2019-05-03T20:44:41.549Z,14.27
2019-05-03T20:47:17.799Z,13.50
2019-05-03T20:49:48.112Z,14.10
2019-05-03T20:52:16.691Z,11.87
2019-05-03T20:54:45.287Z,13.03
2019-05-03T20:57:14.492Z,13.07
2019-05-03T20:59:48.323Z,13.83
2019-05-03T21:02:16.335Z,14.33
2019-05-03T21:04:44.972Z,13.27
2019-05-03T21:07:15.271Z,14.47
2019-05-03T21:09:45.603Z,14.10
2019-05-03T21:12:14.906Z,15.90
2019-05-03T21:14:45.269Z,14.20
2019-05-03T21:17:15.651Z,14.13
2019-05-03T21:19:51.773Z,13.23
2019-05-03T21:22:21.987Z,14.30
2019-05-03T21:24:52.229Z,12.90
2019-05-03T21:27:20.906Z,14.27
2019-05-03T21:29:55.430Z,14.43
2019-05-03T21:32:25.051Z,15.07
2019-05-03T21:34:55.787Z,15.30
2019-05-03T21:37:24.545Z,15.27
2019-05-03T21:39:54.781Z,15.17
2019-05-03T21:42:23.570Z,15.87
2019-05-03T21:44:52.167Z,17.70
2019-05-03T21:47:37.623Z,18.80
2019-05-03T21:50:08.519Z,16.80
2019-05-03T21:52:37.077Z,16.13
2019-05-03T21:55:07.010Z,16.40
2019-05-03T21:57:35.644Z,16.00
2019-05-03T22:00:08.906Z,16.27
2019-05-03T22:02:37.720Z,15.13
2019-05-03T22:05:06.820Z,16.90
2019-05-03T22:07:35.462Z,16.50
2019-05-03T22:10:05.064Z,16.27
2019-05-03T22:12:33.766Z,14.57
2019-05-03T22:15:05.099Z,15.63
2019-05-03T22:17:51.676Z,15.07
2019-05-03T22:20:28.301Z,14.83
2019-05-03T22:23:16.471Z,14.23
2019-05-03T22:25:45.150Z,13.60
2019-05-03T22:28:15.580Z,14.00
2019-05-03T22:30:45.364Z,13.67
2019-05-03T22:33:14.495Z,15.50
2019-05-03T22:35:44.504Z,14.00
2019-05-03T22:38:13.283Z,12.33
2019-05-03T22:43:42.023Z,13.30
2019-05-03T22:46:10.658Z,14.23
2019-05-03T22:48:39.291Z,16.03
2019-05-03T22:51:08.291Z,16.33
2019-05-03T22:53:36.916Z,16.43
2019-05-03T22:56:05.522Z,15.70
2019-05-03T22:58:35.467Z,16.23
2019-05-03T23:01:04.471Z,16.20
2019-05-03T23:03:35.404Z,13.77
2019-05-03T23:06:05.089Z,13.57
2019-05-03T23:08:34.547Z,13.83
2019-05-03T23:11:05.134Z,13.17
2019-05-03T23:13:33.443Z,13.77
2019-05-03T23:16:02.117Z,14.00
2019-05-03T23:18:30.740Z,14.27
2019-05-03T23:21:09.670Z,15.87
2019-05-03T23:23:51.914Z,16.47
2019-05-03T23:26:20.647Z,16.37
2019-05-03T23:28:49.636Z,14.50
2019-05-03T23:31:18.230Z,14.00
2019-05-03T23:33:46.891Z,13.67
2019-05-03T23:36:15.534Z,14.17
2019-05-03T23:38:45.234Z,15.23
2019-05-03T23:41:15.282Z,14.53
2019-05-03T23:43:45.124Z,14.57
2019-05-03T23:46:16.066Z,14.67
2019-05-03T23:48:44.872Z,15.47
2019-05-03T23:51:15.441Z,16.30
2019-05-03T23:53:44.651Z,16.30
2019-05-03T23:56:15.098Z,16.13
2019-05-03T23:58:44.644Z,15.27
